createdAt,value
2022-12-05T00:01:46.084Z,3.62
2022-12-05T00:04:14.689Z,3.60
2022-12-05T00:06:43.273Z,3.60
2022-12-05T00:09:13.111Z,3.59
2022-12-05T00:11:43.080Z,3.59
2022-12-05T00:14:12.907Z,3.58
2022-12-05T00:16:43.095Z,3.58
2022-12-05T00:19:15.238Z,3.59
2022-12-05T00:21:44.031Z,3.59
2022-12-05T00:24:15.502Z,3.57
2022-12-05T00:26:44.099Z,3.57
2022-12-05T00:29:12.550Z,3.57
2022-12-05T00:31:40.560Z,3.58
2022-12-05T00:34:08.816Z,3.60
2022-12-05T00:36:37.250Z,3.61
2022-12-05T00:39:11.464Z,3.64
2022-12-05T00:41:39.266Z,3.67
2022-12-05T00:44:07.517Z,3.67
2022-12-05T00:46:36.249Z,3.69
2022-12-05T00:49:05.797Z,3.70
2022-12-05T00:51:40.497Z,3.71
2022-12-05T00:54:15.007Z,3.72
2022-12-05T00:56:44.167Z,3.74
2022-12-05T00:59:17.189Z,3.75
2022-12-05T01:01:47.317Z,3.76
2022-12-05T01:04:23.993Z,3.77
2022-12-05T01:06:55.987Z,3.75
2022-12-05T01:09:25.225Z,3.74
2022-12-05T01:11:53.563Z,3.71
2022-12-05T01:14:24.469Z,3.71
2022-12-05T01:16:54.818Z,3.73
2022-12-05T01:19:32.945Z,3.77
2022-12-05T01:22:00.832Z,3.81
2022-12-05T01:24:29.564Z,3.83
2022-12-05T01:26:57.923Z,3.84
2022-12-05T01:29:26.435Z,3.87
2022-12-05T01:31:54.875Z,3.90
2022-12-05T01:34:22.987Z,3.90
2022-12-05T01:36:50.976Z,3.88
2022-12-05T01:39:19.100Z,3.86
2022-12-05T01:41:49.655Z,3.87
2022-12-05T01:44:17.409Z,3.86
2022-12-05T01:46:50.749Z,3.86
2022-12-05T01:49:41.630Z,3.86
2022-12-05T01:52:18.226Z,3.86
2022-12-05T01:54:48.603Z,3.88
2022-12-05T01:57:16.629Z,3.89
2022-12-05T01:59:49.343Z,3.90
2022-12-05T02:02:18.183Z,3.93
2022-12-05T02:04:58.359Z,3.94
2022-12-05T02:07:26.769Z,3.93
2022-12-05T02:09:54.639Z,3.94
2022-12-05T02:12:23.810Z,3.94
2022-12-05T02:15:12.800Z,3.95
2022-12-05T02:17:52.838Z,3.95
2022-12-05T02:20:39.247Z,3.95
2022-12-05T02:23:19.128Z,3.96
2022-12-05T02:26:35.093Z,3.95
2022-12-05T02:29:21.470Z,3.94
2022-12-05T02:32:09.482Z,3.91
2022-12-05T02:34:58.762Z,3.87
2022-12-05T02:37:32.548Z,3.86
2022-12-05T02:40:32.255Z,3.84
2022-12-05T02:43:38.244Z,3.85
2022-12-05T02:46:14.273Z,3.85
2022-12-05T02:48:45.875Z,3.85
2022-12-05T02:51:18.626Z,3.88
2022-12-05T02:53:49.523Z,3.91
2022-12-05T02:56:18.193Z,3.91
2022-12-05T02:58:54.464Z,3.92
2022-12-05T03:01:25.655Z,3.93
2022-12-05T03:03:55.685Z,3.96
2022-12-05T03:06:34.805Z,3.95
2022-12-05T03:09:06.828Z,3.97
2022-12-05T03:11:41.377Z,3.97
2022-12-05T03:14:14.813Z,3.95
2022-12-05T03:16:50.348Z,3.93
2022-12-05T03:19:25.163Z,3.91
2022-12-05T03:22:01.236Z,3.92
2022-12-05T03:24:30.611Z,3.92
2022-12-05T03:27:07.947Z,3.92
2022-12-05T03:29:47.426Z,3.92
2022-12-05T03:32:18.073Z,3.93
2022-12-05T03:34:55.501Z,3.93
2022-12-05T03:37:52.441Z,3.96
2022-12-05T03:40:43.679Z,3.97
2022-12-05T03:43:17.361Z,3.97
2022-12-05T03:45:48.719Z,3.94
2022-12-05T03:48:30.171Z,3.91
2022-12-05T03:50:59.537Z,3.91
2022-12-05T03:53:39.262Z,3.94
2022-12-05T03:56:14.529Z,3.96
2022-12-05T03:58:49.531Z,3.97
2022-12-05T04:01:19.750Z,3.98
2022-12-05T04:03:54.039Z,4.02
2022-12-05T04:06:28.694Z,4.02
2022-12-05T04:09:03.078Z,4.02
2022-12-05T04:11:35.568Z,4.04
2022-12-05T04:14:18.478Z,4.06
2022-12-05T04:17:03.809Z,4.08
2022-12-05T04:20:11.125Z,4.08
2022-12-05T04:22:40.178Z,4.10
2022-12-05T04:25:31.169Z,4.13
2022-12-05T04:28:34.592Z,4.15
2022-12-05T04:31:19.256Z,4.17
2022-12-05T04:33:54.806Z,4.19
2022-12-05T04:36:29.988Z,4.20
2022-12-05T04:39:05.534Z,4.19
2022-12-05T04:41:56.817Z,4.21
2022-12-05T04:44:29.475Z,4.19
2022-12-05T04:47:01.970Z,4.18
2022-12-05T04:49:32.477Z,4.20
2022-12-05T04:52:05.324Z,4.20
2022-12-05T04:55:00.002Z,4.19
2022-12-05T04:57:33.445Z,4.19
2022-12-05T05:00:01.598Z,4.20
2022-12-05T05:02:39.285Z,4.22
2022-12-05T05:05:14.156Z,4.20
2022-12-05T05:07:50.934Z,4.21
2022-12-05T05:10:48.408Z,4.21
2022-12-05T05:13:16.207Z,4.19
2022-12-05T05:15:44.033Z,4.17
2022-12-05T05:18:11.883Z,4.19
2022-12-05T05:20:39.818Z,4.22
2022-12-05T05:23:07.909Z,4.22
2022-12-05T05:25:36.031Z,4.26
2022-12-05T05:28:03.965Z,4.29
2022-12-05T05:30:31.951Z,4.30
2022-12-05T05:33:00.512Z,4.32
2022-12-05T05:35:28.584Z,4.30
2022-12-05T05:37:56.499Z,4.32
2022-12-05T05:40:24.232Z,4.30
2022-12-05T05:42:51.996Z,4.31
2022-12-05T05:45:19.812Z,4.31
2022-12-05T05:47:50.440Z,4.29
2022-12-05T05:50:21.664Z,4.25
2022-12-05T05:52:49.951Z,4.23
2022-12-05T05:55:18.214Z,4.21
2022-12-05T05:57:46.266Z,4.22
2022-12-05T06:00:15.003Z,4.22
2022-12-05T06:02:42.963Z,4.21
2022-12-05T06:05:10.891Z,4.17
2022-12-05T06:07:38.726Z,4.20
2022-12-05T06:10:07.213Z,4.21
2022-12-05T06:12:35.025Z,4.24
2022-12-05T06:15:03.011Z,4.27
2022-12-05T06:17:30.809Z,4.28
2022-12-05T06:19:58.825Z,4.28
2022-12-05T06:22:26.789Z,4.27
2022-12-05T06:24:54.863Z,4.26
2022-12-05T06:27:22.634Z,4.25
2022-12-05T06:29:50.600Z,4.25
2022-12-05T06:32:18.443Z,4.28
2022-12-05T06:34:46.267Z,4.28
2022-12-05T06:37:14.116Z,4.29
2022-12-05T06:39:41.955Z,4.31
2022-12-05T06:42:09.784Z,4.32
2022-12-05T06:44:37.707Z,4.38
2022-12-05T06:47:05.582Z,4.37
2022-12-05T06:49:37.696Z,4.37
2022-12-05T06:52:06.000Z,4.42
2022-12-05T06:54:33.813Z,4.49
2022-12-05T06:57:01.816Z,4.54
2022-12-05T06:59:29.562Z,4.58
2022-12-05T07:01:57.566Z,4.61
2022-12-05T07:04:25.449Z,4.65
2022-12-05T07:06:55.545Z,4.69
2022-12-05T07:09:44.880Z,4.71
2022-12-05T07:12:13.718Z,4.71
2022-12-05T07:14:50.006Z,4.71
2022-12-05T07:17:19.864Z,4.74
2022-12-05T07:19:51.879Z,4.77
2022-12-05T07:22:21.514Z,4.78
2022-12-05T07:24:52.082Z,4.78
2022-12-05T07:27:26.569Z,4.79
2022-12-05T07:29:56.173Z,4.82
2022-12-05T07:32:24.250Z,4.85
2022-12-05T07:34:55.272Z,4.88
2022-12-05T07:37:23.960Z,4.92
2022-12-05T07:39:53.103Z,4.97
2022-12-05T07:42:20.956Z,4.99
2022-12-05T07:44:48.738Z,4.99
2022-12-05T07:47:16.578Z,4.97
2022-12-05T07:49:44.442Z,4.98
2022-12-05T07:52:12.206Z,4.98
2022-12-05T07:54:39.961Z,4.99
2022-12-05T07:57:07.836Z,5.01
2022-12-05T07:59:35.600Z,5.08
2022-12-05T08:02:03.653Z,5.12
2022-12-05T08:04:31.575Z,5.13
2022-12-05T08:06:59.369Z,5.17
2022-12-05T08:09:27.657Z,5.20
2022-12-05T08:11:55.496Z,5.21
2022-12-05T08:14:23.347Z,5.20
2022-12-05T08:16:51.288Z,5.23
2022-12-05T08:19:19.378Z,5.27
2022-12-05T08:21:47.328Z,5.28
2022-12-05T08:24:15.188Z,5.30
2022-12-05T08:26:43.024Z,5.33
2022-12-05T08:29:15.081Z,5.37
2022-12-05T08:31:47.308Z,5.42
2022-12-05T08:34:17.731Z,5.45
2022-12-05T08:36:46.100Z,5.43
2022-12-05T08:39:17.044Z,5.45
2022-12-05T08:41:46.128Z,5.48
2022-12-05T08:44:17.057Z,5.54
2022-12-05T08:46:47.633Z,5.64
2022-12-05T08:49:16.464Z,5.70
2022-12-05T08:51:45.124Z,5.77
2022-12-05T08:54:13.384Z,5.81
2022-12-05T08:56:41.254Z,5.83
2022-12-05T08:59:09.138Z,5.87
2022-12-05T09:01:39.397Z,5.93
2022-12-05T09:04:08.450Z,5.99
2022-12-05T09:06:36.802Z,6.05
2022-12-05T09:09:07.714Z,6.09
2022-12-05T09:11:40.913Z,6.13
2022-12-05T09:14:08.861Z,6.16
2022-12-05T09:16:39.786Z,6.19
2022-12-05T09:19:14.731Z,6.20
2022-12-05T09:21:43.303Z,6.20
2022-12-05T09:24:13.244Z,6.20
2022-12-05T09:26:41.934Z,6.19
2022-12-05T09:29:16.129Z,6.22
2022-12-05T09:31:47.839Z,6.25
2022-12-05T09:34:18.023Z,6.27
2022-12-05T09:36:55.770Z,6.31
2022-12-05T09:39:26.391Z,6.37
2022-12-05T09:42:18.649Z,6.39
2022-12-05T09:44:52.145Z,6.43
2022-12-05T09:47:29.063Z,6.46
2022-12-05T09:50:14.342Z,6.49
2022-12-05T09:52:54.003Z,6.52
2022-12-05T09:55:22.196Z,6.53
2022-12-05T09:57:57.709Z,6.55
2022-12-05T10:00:29.416Z,6.58
2022-12-05T10:03:05.065Z,6.62
2022-12-05T10:05:47.324Z,6.66
2022-12-05T10:08:22.658Z,6.69
2022-12-05T10:10:56.736Z,6.71
2022-12-05T10:13:38.167Z,6.73
2022-12-05T10:16:14.020Z,6.73
2022-12-05T10:18:54.170Z,6.75
2022-12-05T10:21:33.301Z,6.80
2022-12-05T10:24:04.677Z,6.83
2022-12-05T10:27:20.419Z,6.90
2022-12-05T10:29:58.318Z,6.88
2022-12-05T10:32:33.273Z,6.92
2022-12-05T10:35:15.902Z,6.98
2022-12-05T10:37:50.017Z,7.05
2022-12-05T10:40:18.247Z,7.12
2022-12-05T10:42:48.367Z,7.17
2022-12-05T10:45:20.459Z,7.22
2022-12-05T10:47:49.994Z,7.26
2022-12-05T10:50:24.120Z,7.32
2022-12-05T10:52:54.041Z,7.39
2022-12-05T10:55:22.117Z,7.48
2022-12-05T10:58:14.088Z,7.54
2022-12-05T11:00:49.227Z,7.61
2022-12-05T11:03:23.534Z,7.67
2022-12-05T11:09:24.172Z,7.75
2022-12-05T11:12:14.436Z,7.75
2022-12-05T11:14:57.242Z,7.80
2022-12-05T11:17:29.643Z,7.84
2022-12-05T11:19:56.450Z,7.90
2022-12-05T11:22:34.929Z,7.95
2022-12-05T11:25:25.121Z,7.99
2022-12-05T11:27:52.090Z,8.03
2022-12-05T11:30:21.744Z,8.06
2022-12-05T11:32:49.481Z,8.09
2022-12-05T11:35:15.920Z,8.12
2022-12-05T11:37:56.063Z,8.15
2022-12-05T11:40:38.397Z,8.18
2022-12-05T11:43:39.948Z,8.20
2022-12-05T11:46:09.225Z,8.23
2022-12-05T11:48:51.109Z,8.25
2022-12-05T11:51:38.548Z,8.25
2022-12-05T11:54:56.285Z,8.27
2022-12-05T11:57:25.489Z,8.27
2022-12-05T12:00:13.413Z,8.29
2022-12-05T12:02:58.512Z,8.30
2022-12-05T12:05:46.430Z,8.30
2022-12-05T12:08:49.268Z,8.29
2022-12-05T12:11:28.128Z,8.31
2022-12-05T12:14:18.920Z,8.32
2022-12-05T12:17:03.556Z,8.35
2022-12-05T12:19:45.489Z,8.36
2022-12-05T12:22:42.237Z,8.36
2022-12-05T12:25:41.333Z,8.35
2022-12-05T12:28:29.467Z,8.33
2022-12-05T12:31:23.898Z,8.31
2022-12-05T12:34:04.234Z,8.31
2022-12-05T12:36:49.997Z,8.29
2022-12-05T12:39:25.019Z,8.29
2022-12-05T12:42:10.865Z,8.31
2022-12-05T12:44:52.702Z,8.31
2022-12-05T12:47:33.307Z,8.26
2022-12-05T12:50:22.965Z,8.20
2022-12-05T12:52:57.394Z,8.16
2022-12-05T12:55:47.586Z,8.14
2022-12-05T12:58:52.432Z,8.13
2022-12-05T13:01:33.296Z,8.13
2022-12-05T13:04:11.631Z,8.10
2022-12-05T13:06:48.180Z,8.06
2022-12-05T13:09:23.713Z,8.04
2022-12-05T13:11:53.569Z,8.03
2022-12-05T13:14:24.534Z,8.02
2022-12-05T13:16:53.950Z,8.01
2022-12-05T13:19:42.186Z,8.00
2022-12-05T13:22:10.354Z,7.99
2022-12-05T13:24:36.885Z,7.99
2022-12-05T13:27:14.732Z,7.98
2022-12-05T13:29:47.792Z,7.95
2022-12-05T13:32:43.072Z,7.92
2022-12-05T13:35:13.669Z,7.91
2022-12-05T13:38:06.601Z,7.89
2022-12-05T13:40:55.571Z,7.90
2022-12-05T13:43:26.342Z,7.91
2022-12-05T13:46:22.107Z,7.90
2022-12-05T13:48:49.392Z,7.90
2022-12-05T13:51:30.488Z,7.89
2022-12-05T13:54:19.559Z,7.88
2022-12-05T13:56:50.249Z,7.87
2022-12-05T13:59:54.924Z,7.88
2022-12-05T14:02:44.755Z,7.89
2022-12-05T14:05:17.916Z,7.89
2022-12-05T14:07:48.563Z,7.89
2022-12-05T14:10:44.367Z,7.87
2022-12-05T14:13:16.986Z,7.83
2022-12-05T14:15:45.339Z,7.81
2022-12-05T14:18:37.395Z,7.82
2022-12-05T14:21:33.808Z,7.83
2022-12-05T14:24:06.386Z,7.74
2022-12-05T14:27:06.759Z,7.61
2022-12-05T14:30:09.697Z,7.50
2022-12-05T14:32:41.926Z,7.29
2022-12-05T14:35:18.908Z,7.02
2022-12-05T14:38:15.830Z,6.81
2022-12-05T14:40:43.895Z,6.58
2022-12-05T14:43:20.277Z,6.42
2022-12-05T14:45:49.787Z,6.30
2022-12-05T14:48:16.166Z,6.17
2022-12-05T14:50:44.351Z,6.09
2022-12-05T14:53:15.016Z,6.01
2022-12-05T14:55:47.278Z,5.94
2022-12-05T14:58:21.125Z,5.86
2022-12-05T15:00:59.967Z,5.73
2022-12-05T15:03:33.499Z,5.65
2022-12-05T15:06:04.162Z,5.58
2022-12-05T15:08:44.477Z,5.52
2022-12-05T15:11:27.424Z,5.47
2022-12-05T15:14:00.043Z,5.40
2022-12-05T15:16:29.412Z,5.37
2022-12-05T15:19:03.141Z,5.34
2022-12-05T15:21:37.652Z,5.35
2022-12-05T15:24:10.135Z,5.33
2022-12-05T15:26:48.479Z,5.33
2022-12-05T15:29:22.513Z,5.29
2022-12-05T15:32:07.554Z,5.27
2022-12-05T15:34:34.028Z,5.28
2022-12-05T15:37:11.530Z,5.32
2022-12-05T15:39:52.901Z,5.40
2022-12-05T15:42:29.214Z,5.46
2022-12-05T15:45:11.253Z,5.53
2022-12-05T15:47:37.969Z,5.60
2022-12-05T15:50:05.607Z,5.60
2022-12-05T15:52:41.135Z,5.55
2022-12-05T15:55:14.998Z,5.54
2022-12-05T15:57:49.658Z,5.48
2022-12-05T16:00:18.420Z,5.42
2022-12-05T16:02:53.200Z,5.37
2022-12-05T16:05:30.488Z,5.33
2022-12-05T16:07:57.367Z,5.33
2022-12-05T16:10:29.367Z,5.34
2022-12-05T16:13:03.957Z,5.32
2022-12-05T16:15:31.180Z,5.31
2022-12-05T16:18:00.609Z,5.33
2022-12-05T16:20:27.235Z,5.31
2022-12-05T16:22:56.406Z,5.34
2022-12-05T16:25:29.245Z,5.37
2022-12-05T16:28:00.562Z,5.40
2022-12-05T16:30:28.118Z,5.47
2022-12-05T16:33:00.776Z,5.54
2022-12-05T16:35:38.988Z,5.59
2022-12-05T16:38:11.585Z,5.58
2022-12-05T16:40:45.334Z,5.61
2022-12-05T16:43:39.926Z,5.68
2022-12-05T16:46:12.547Z,5.71
2022-12-05T16:48:44.135Z,5.72
2022-12-05T16:51:10.548Z,5.74
2022-12-05T16:53:38.664Z,5.79
2022-12-05T16:56:10.399Z,5.83
2022-12-05T16:58:36.868Z,5.85
2022-12-05T17:01:05.582Z,5.87
2022-12-05T17:03:35.456Z,5.85
2022-12-05T17:06:03.605Z,5.75
2022-12-05T17:08:30.122Z,5.70
2022-12-05T17:10:57.263Z,5.73
2022-12-05T17:13:23.992Z,5.79
2022-12-05T17:15:50.609Z,5.82
2022-12-05T17:18:20.064Z,5.83
2022-12-05T17:20:52.641Z,5.83
2022-12-05T17:23:19.604Z,5.84
2022-12-05T17:25:51.861Z,5.85
2022-12-05T17:28:18.893Z,5.87
2022-12-05T17:30:45.870Z,5.87
2022-12-05T17:33:15.301Z,5.88
2022-12-05T17:35:42.151Z,5.89
2022-12-05T17:38:10.091Z,5.91
2022-12-05T17:40:38.312Z,5.92
2022-12-05T17:43:05.869Z,5.93
2022-12-05T17:45:32.821Z,5.93
2022-12-05T17:47:59.359Z,5.90
2022-12-05T17:50:26.064Z,5.88
2022-12-05T17:52:55.359Z,5.87
2022-12-05T17:55:24.915Z,5.85
2022-12-05T17:57:53.469Z,5.83
2022-12-05T18:00:21.520Z,5.81
2022-12-05T18:02:48.025Z,5.83
2022-12-05T18:05:15.397Z,5.87
2022-12-05T18:07:44.101Z,5.90
2022-12-05T18:10:15.384Z,5.93
2022-12-05T18:12:42.339Z,5.98
2022-12-05T18:15:09.456Z,6.01
2022-12-05T18:17:36.037Z,6.05
2022-12-05T18:20:04.071Z,6.10
2022-12-05T18:22:30.666Z,6.14
2022-12-05T18:24:57.670Z,6.18
2022-12-05T18:27:24.627Z,6.22
2022-12-05T18:29:51.109Z,6.25
2022-12-05T18:32:19.106Z,6.29
2022-12-05T18:34:45.808Z,6.34
2022-12-05T18:37:12.846Z,6.38
2022-12-05T18:39:39.375Z,6.42
2022-12-05T18:42:10.355Z,6.45
2022-12-05T18:44:41.299Z,6.47
2022-12-05T18:47:07.794Z,6.50
2022-12-05T18:49:34.347Z,6.51
2022-12-05T18:52:00.782Z,6.52
2022-12-05T18:54:27.242Z,6.54
2022-12-05T18:56:53.804Z,6.56
2022-12-05T18:59:21.374Z,6.58
2022-12-05T19:01:49.187Z,6.59
2022-12-05T19:04:18.441Z,6.61
2022-12-05T19:06:53.276Z,6.61
2022-12-05T19:09:22.953Z,6.63
2022-12-05T19:11:54.232Z,6.65
2022-12-05T19:14:22.064Z,6.65
2022-12-05T19:16:53.658Z,6.67
2022-12-05T19:19:24.534Z,6.68
2022-12-05T19:21:52.872Z,6.69
2022-12-05T19:24:19.423Z,6.68
2022-12-05T19:26:47.401Z,6.69
2022-12-05T19:29:15.284Z,6.70
2022-12-05T19:31:42.854Z,6.71
2022-12-05T19:34:10.012Z,6.71
2022-12-05T19:36:39.900Z,6.69
2022-12-05T19:39:14.142Z,6.68
2022-12-05T19:41:41.306Z,6.68
2022-12-05T19:44:07.830Z,6.70
2022-12-05T19:46:35.130Z,6.71
2022-12-05T19:49:05.049Z,6.73
2022-12-05T19:51:32.704Z,6.74
2022-12-05T19:54:00.803Z,6.73
2022-12-05T19:56:29.225Z,6.74
2022-12-05T19:58:57.499Z,6.74
2022-12-05T20:01:32.940Z,6.75
2022-12-05T20:04:17.785Z,6.75
2022-12-05T20:06:46.908Z,6.75
2022-12-05T20:09:15.643Z,6.75
2022-12-05T20:11:43.909Z,6.74
2022-12-05T20:14:12.321Z,6.74
2022-12-05T20:16:39.231Z,6.74
2022-12-05T20:19:06.038Z,6.73
2022-12-05T20:21:34.666Z,6.72
2022-12-05T20:24:03.176Z,6.73
2022-12-05T20:26:32.758Z,6.72
2022-12-05T20:29:00.009Z,6.72
2022-12-05T20:31:29.790Z,6.70
2022-12-05T20:33:56.806Z,6.64
2022-12-05T20:36:26.666Z,6.59
2022-12-05T20:39:05.809Z,6.56
2022-12-05T20:41:33.354Z,6.53
2022-12-05T20:44:02.237Z,6.52
2022-12-05T20:46:29.339Z,6.46
2022-12-05T20:48:55.946Z,6.40
2022-12-05T20:51:24.003Z,6.36
2022-12-05T20:53:51.358Z,6.34
2022-12-05T20:56:24.614Z,6.31
2022-12-05T20:58:53.365Z,6.31
2022-12-05T21:01:22.643Z,6.33
2022-12-05T21:03:51.363Z,6.36
2022-12-05T21:06:23.813Z,6.40
2022-12-05T21:08:51.684Z,6.43
2022-12-05T21:11:18.849Z,6.46
2022-12-05T21:13:45.823Z,6.47
2022-12-05T21:16:18.427Z,6.47
2022-12-05T21:18:45.972Z,6.45
2022-12-05T21:21:15.431Z,6.46
2022-12-05T21:23:43.591Z,6.47
2022-12-05T21:26:13.317Z,6.46
2022-12-05T21:28:40.949Z,6.46
2022-12-05T21:31:10.863Z,6.47
2022-12-05T21:33:38.002Z,6.48
2022-12-05T21:36:06.018Z,6.49
2022-12-05T21:38:32.492Z,6.47
2022-12-05T21:40:58.974Z,6.45
2022-12-05T21:43:25.516Z,6.44
2022-12-05T21:45:53.590Z,6.44
2022-12-05T21:48:22.376Z,6.44
2022-12-05T21:50:49.809Z,6.46
2022-12-05T21:53:17.519Z,6.46
2022-12-05T21:55:44.657Z,6.44
2022-12-05T21:58:11.203Z,6.31
2022-12-05T22:00:38.309Z,6.18
2022-12-05T22:03:05.935Z,6.10
2022-12-05T22:05:35.040Z,6.03
2022-12-05T22:08:06.321Z,5.94
2022-12-05T22:10:34.368Z,5.91
2022-12-05T22:13:00.880Z,5.87
2022-12-05T22:15:27.344Z,5.84
2022-12-05T22:17:53.763Z,5.82
2022-12-05T22:20:20.170Z,5.82
2022-12-05T22:22:46.819Z,5.85
2022-12-05T22:25:13.411Z,5.88
2022-12-05T22:27:40.199Z,5.92
2022-12-05T22:30:07.336Z,5.95
2022-12-05T22:32:33.755Z,5.99
2022-12-05T22:35:03.768Z,6.02
2022-12-05T22:37:31.093Z,6.03
2022-12-05T22:39:57.968Z,6.03
2022-12-05T22:42:28.006Z,6.04
2022-12-05T22:44:54.445Z,6.05
2022-12-05T22:47:20.935Z,6.05
2022-12-05T22:49:47.485Z,6.06
2022-12-05T22:52:14.667Z,6.04
2022-12-05T22:54:41.067Z,6.05
2022-12-05T22:57:07.604Z,6.06
2022-12-05T22:59:34.014Z,6.08
2022-12-05T23:02:00.454Z,6.11
2022-12-05T23:04:27.022Z,6.13
2022-12-05T23:06:53.484Z,6.14
2022-12-05T23:09:20.538Z,6.14
2022-12-05T23:11:49.949Z,6.13
2022-12-05T23:14:16.465Z,6.15
2022-12-05T23:16:43.097Z,6.17
2022-12-05T23:19:09.685Z,6.18
2022-12-05T23:21:38.985Z,6.16
2022-12-05T23:24:09.099Z,6.17
2022-12-05T23:26:45.632Z,6.19
2022-12-05T23:29:13.331Z,6.17
2022-12-05T23:31:41.259Z,6.09
2022-12-05T23:34:08.391Z,6.05
2022-12-05T23:36:36.297Z,6.03
2022-12-05T23:39:03.518Z,6.01
2022-12-05T23:41:30.191Z,6.02
2022-12-05T23:43:56.842Z,6.01
2022-12-05T23:46:25.534Z,6.00
2022-12-05T23:48:52.436Z,6.00
2022-12-05T23:51:22.089Z,6.00
2022-12-05T23:53:52.962Z,6.00
2022-12-05T23:56:22.692Z,5.98
2022-12-05T23:58:50.160Z,5.96
